createdAt,value
2019-05-26T00:00:46.008Z,2.72
2019-05-26T00:05:51.722Z,3.47
2019-05-26T00:10:57.413Z,4.47
2019-05-26T00:16:02.982Z,3.12
2019-05-26T00:21:08.614Z,3.15
2019-05-26T00:26:14.270Z,4.35
2019-05-26T00:31:20.085Z,2.35
2019-05-26T00:36:25.907Z,4.30
2019-05-26T00:41:31.552Z,5.22
2019-05-26T00:46:37.139Z,5.25
2019-05-26T00:51:42.885Z,8.10
2019-05-26T00:56:48.456Z,3.12
2019-05-26T01:01:54.146Z,4.65
2019-05-26T01:06:59.688Z,4.72
2019-05-26T01:12:05.347Z,5.95
2019-05-26T01:17:10.945Z,4.78
2019-05-26T01:22:16.622Z,5.92
2019-05-26T01:27:22.305Z,7.67
2019-05-26T01:32:27.918Z,7.42
2019-05-26T01:37:34.071Z,6.05
2019-05-26T01:42:39.704Z,5.90
2019-05-26T01:47:45.435Z,8.68
2019-05-26T01:52:51.144Z,9.50
2019-05-26T01:57:56.837Z,10.95
2019-05-26T02:03:02.539Z,5.95
2019-05-26T02:08:11.620Z,6.55
2019-05-26T02:13:15.722Z,4.33
2019-05-26T02:18:21.303Z,7.25
2019-05-26T02:23:26.906Z,6.28
2019-05-26T02:28:32.429Z,8.30
2019-05-26T02:33:38.133Z,7.05
2019-05-26T02:39:00.892Z,6.83
2019-05-26T02:43:51.013Z,8.55
2019-05-26T02:48:56.654Z,7.92
2019-05-26T02:54:02.325Z,10.98
2019-05-26T02:59:08.111Z,9.88
2019-05-26T03:04:13.869Z,8.98
2019-05-26T03:09:23.551Z,6.95
2019-05-26T03:14:30.394Z,7.40
2019-05-26T03:19:36.227Z,5.62
2019-05-26T03:24:43.644Z,9.10
2019-05-26T03:29:49.529Z,10.18
2019-05-26T03:34:55.365Z,6.50
2019-05-26T03:40:01.540Z,7.17
2019-05-26T03:45:08.264Z,12.05
2019-05-26T03:50:15.378Z,9.55
2019-05-26T03:55:20.999Z,6.12
2019-05-26T04:00:26.738Z,7.65
2019-05-26T04:05:32.559Z,8.63
2019-05-26T04:10:38.328Z,8.95
2019-05-26T04:15:44.078Z,11.45
2019-05-26T04:20:49.640Z,7.97
2019-05-26T04:25:55.237Z,8.20
2019-05-26T04:31:00.956Z,7.55
2019-05-26T04:36:07.027Z,7.67
2019-05-26T04:41:13.896Z,8.00
2019-05-26T04:46:19.575Z,9.90
2019-05-26T04:51:25.256Z,5.65
2019-05-26T04:56:30.930Z,6.45
2019-05-26T05:01:36.494Z,8.13
2019-05-26T05:06:42.114Z,6.35
2019-05-26T05:11:47.677Z,6.50
2019-05-26T05:16:53.297Z,7.03
2019-05-26T05:21:58.917Z,8.60
2019-05-26T05:27:04.600Z,6.97
2019-05-26T05:32:10.189Z,8.00
2019-05-26T05:37:15.869Z,6.53
2019-05-26T05:42:23.407Z,4.95
2019-05-26T05:47:28.969Z,7.40
2019-05-26T05:52:34.680Z,7.42
2019-05-26T05:57:40.408Z,5.37
2019-05-26T06:02:46.038Z,8.13
2019-05-26T06:07:51.594Z,6.70
2019-05-26T06:12:57.176Z,9.40
2019-05-26T06:18:02.849Z,5.12
2019-05-26T06:23:08.420Z,5.47
2019-05-26T06:28:14.162Z,6.10
2019-05-26T06:33:21.418Z,7.80
2019-05-26T06:38:27.001Z,5.75
2019-05-26T06:43:32.650Z,3.95
2019-05-26T06:48:38.313Z,4.37
2019-05-26T06:53:44.051Z,5.28
2019-05-26T06:58:49.636Z,5.28
2019-05-26T07:03:55.376Z,5.58
2019-05-26T07:09:01.773Z,30.55
2019-05-26T07:14:07.278Z,16.42
2019-05-26T07:19:12.999Z,6.42
2019-05-26T07:24:18.752Z,5.03
2019-05-26T07:29:24.342Z,6.95
2019-05-26T07:34:29.983Z,3.30
2019-05-26T07:39:35.620Z,3.65
2019-05-26T07:44:41.250Z,4.12
2019-05-26T07:49:47.015Z,3.05
2019-05-26T07:54:52.827Z,4.53
2019-05-26T07:59:58.558Z,5.25
2019-05-26T08:05:04.805Z,3.25
2019-05-26T08:10:10.646Z,4.78
2019-05-26T08:15:16.490Z,2.50
2019-05-26T08:20:22.184Z,1.98
2019-05-26T08:25:28.115Z,1.98
2019-05-26T08:30:33.689Z,3.85
2019-05-26T08:35:39.270Z,3.10
2019-05-26T08:40:44.816Z,3.08
2019-05-26T08:45:50.574Z,3.25
2019-05-26T08:50:56.556Z,2.65
2019-05-26T08:56:02.312Z,2.42
2019-05-26T09:01:08.103Z,2.42
2019-05-26T09:06:13.811Z,3.22
2019-05-26T09:11:19.454Z,1.80
2019-05-26T09:16:25.178Z,4.78
2019-05-26T09:21:30.866Z,2.58
2019-05-26T09:26:36.659Z,4.80
2019-05-26T09:31:42.338Z,3.83
2019-05-26T09:36:48.193Z,3.50
2019-05-26T09:41:53.785Z,2.58
2019-05-26T09:46:59.564Z,6.40
2019-05-26T09:52:05.243Z,5.65
2019-05-26T09:57:10.976Z,4.10
2019-05-26T10:02:16.761Z,4.20
2019-05-26T10:07:22.708Z,3.37
2019-05-26T10:12:28.677Z,4.65
2019-05-26T10:17:34.337Z,3.05
2019-05-26T10:22:39.964Z,5.87
2019-05-26T10:27:45.630Z,5.08
2019-05-26T10:32:51.461Z,4.05
2019-05-26T10:37:57.267Z,2.95
2019-05-26T10:43:02.862Z,5.83
2019-05-26T10:48:08.719Z,3.65
2019-05-26T10:53:14.361Z,3.45
2019-05-26T10:58:20.103Z,4.58
2019-05-26T11:03:25.755Z,3.80
2019-05-26T11:08:31.415Z,4.12
2019-05-26T11:13:40.489Z,5.33
2019-05-26T11:18:44.326Z,3.80
2019-05-26T11:23:50.125Z,4.45
2019-05-26T11:28:55.795Z,2.75
2019-05-26T11:34:01.322Z,5.15
2019-05-26T11:39:08.226Z,3.00
2019-05-26T11:44:18.037Z,6.12
2019-05-26T11:49:21.302Z,4.80
2019-05-26T11:54:27.228Z,5.75
2019-05-26T11:59:32.976Z,7.17
2019-05-26T12:04:38.660Z,5.87
2019-05-26T12:09:44.420Z,4.53
2019-05-26T12:14:50.205Z,3.83
2019-05-26T12:19:55.866Z,4.58
2019-05-26T12:25:01.658Z,3.42
2019-05-26T12:30:08.713Z,3.85
2019-05-26T12:35:15.139Z,6.42
2019-05-26T12:40:21.156Z,3.40
2019-05-26T12:45:26.985Z,3.98
2019-05-26T12:50:32.875Z,5.92
2019-05-26T12:55:38.718Z,5.80
2019-05-26T13:00:49.800Z,4.55
2019-05-26T13:05:51.930Z,4.22
2019-05-26T13:10:57.805Z,6.35
2019-05-26T13:16:03.585Z,2.50
2019-05-26T13:21:09.158Z,5.28
2019-05-26T13:26:14.916Z,3.72
2019-05-26T13:31:20.986Z,5.85
2019-05-26T13:36:26.844Z,6.22
2019-05-26T13:41:32.678Z,4.90
2019-05-26T13:46:38.348Z,5.50
2019-05-26T13:51:43.981Z,8.38
2019-05-26T13:56:52.549Z,3.65
2019-05-26T14:01:58.139Z,3.17
2019-05-26T14:07:03.748Z,3.35
2019-05-26T14:12:09.854Z,3.75
2019-05-26T14:17:16.030Z,3.17
2019-05-26T14:22:21.713Z,6.12
2019-05-26T14:27:27.321Z,8.55
2019-05-26T14:32:33.099Z,5.00
2019-05-26T14:37:38.732Z,5.17
2019-05-26T14:42:44.570Z,4.67
2019-05-26T14:47:50.565Z,3.58
2019-05-26T14:52:56.523Z,5.87
2019-05-26T14:58:15.190Z,3.98
2019-05-26T15:03:09.479Z,5.70
2019-05-26T15:08:15.477Z,3.77
2019-05-26T15:13:21.226Z,2.47
2019-05-26T15:18:26.985Z,3.47
2019-05-26T15:23:32.851Z,3.47
2019-05-26T15:28:38.636Z,3.42
2019-05-26T15:33:44.468Z,2.52
2019-05-26T15:38:50.115Z,2.05
2019-05-26T15:43:55.797Z,0.75
2019-05-26T15:49:01.581Z,2.65
2019-05-26T15:54:07.285Z,1.60
2019-05-26T15:59:12.985Z,1.20
2019-05-26T16:04:18.687Z,1.35
2019-05-26T16:09:24.468Z,0.90
2019-05-26T16:14:30.189Z,1.55
2019-05-26T16:19:36.393Z,1.05
2019-05-26T16:24:42.257Z,1.20
2019-05-26T16:29:48.012Z,2.58
2019-05-26T16:34:53.742Z,1.65
2019-05-26T16:39:59.598Z,1.42
2019-05-26T16:45:06.476Z,1.20
2019-05-26T16:50:12.321Z,1.25
2019-05-26T16:55:18.490Z,2.22
2019-05-26T17:00:24.486Z,2.45
2019-05-26T17:05:30.337Z,3.47
2019-05-26T17:10:36.087Z,1.80
2019-05-26T17:15:42.227Z,2.75
2019-05-26T17:20:48.419Z,1.50
2019-05-26T17:25:54.132Z,4.20
2019-05-26T17:31:00.353Z,1.35
2019-05-26T17:36:06.202Z,3.55
2019-05-26T17:41:11.990Z,3.27
2019-05-26T17:46:17.700Z,4.58
2019-05-26T17:51:23.708Z,1.52
2019-05-26T17:56:29.432Z,2.02
2019-05-26T18:01:35.183Z,4.28
2019-05-26T18:06:41.017Z,2.98
2019-05-26T18:11:46.645Z,1.40
2019-05-26T18:16:52.358Z,4.12
2019-05-26T18:21:57.919Z,0.95
2019-05-26T18:27:03.631Z,2.87
2019-05-26T18:32:09.720Z,1.25
2019-05-26T18:37:16.055Z,1.70
2019-05-26T18:42:22.059Z,2.40
2019-05-26T18:47:27.866Z,1.42
2019-05-26T18:52:35.309Z,4.17
2019-05-26T18:57:41.041Z,4.97
2019-05-26T19:02:46.998Z,2.22
2019-05-26T19:07:52.811Z,3.85
2019-05-26T19:12:58.519Z,3.33
2019-05-26T19:18:18.681Z,3.30
2019-05-26T19:23:12.173Z,1.92
2019-05-26T19:28:17.928Z,3.72
2019-05-26T19:33:23.603Z,1.52
2019-05-26T19:38:29.211Z,1.92
2019-05-26T19:43:35.113Z,1.90
2019-05-26T19:48:40.854Z,3.08
2019-05-26T19:53:46.743Z,2.75
2019-05-26T19:58:52.521Z,2.85
2019-05-26T20:03:59.203Z,2.98
2019-05-26T20:09:07.294Z,8.58
2019-05-26T20:14:13.055Z,2.45
2019-05-26T20:19:18.995Z,2.22
2019-05-26T20:24:24.750Z,3.05
2019-05-26T20:29:30.389Z,4.30
2019-05-26T20:34:36.132Z,3.95
2019-05-26T20:39:42.498Z,5.05
2019-05-26T20:44:48.384Z,3.65
2019-05-26T20:49:54.068Z,6.15
2019-05-26T20:54:59.711Z,5.75
2019-05-26T21:00:06.583Z,6.28
2019-05-26T21:05:12.545Z,7.33
2019-05-26T21:10:18.326Z,10.98
2019-05-26T21:15:23.931Z,5.97
2019-05-26T21:20:29.600Z,7.30
2019-05-26T21:25:35.227Z,5.83
2019-05-26T21:30:40.978Z,3.43
2019-05-26T21:35:46.587Z,6.55
2019-05-26T21:40:52.186Z,4.60
2019-05-26T21:45:57.789Z,6.05
2019-05-26T21:51:03.306Z,6.33
2019-05-26T21:56:08.971Z,4.12
2019-05-26T22:01:16.016Z,3.60
2019-05-26T22:06:24.092Z,4.00
2019-05-26T22:11:29.803Z,6.20
2019-05-26T22:16:35.368Z,7.62
2019-05-26T22:21:41.015Z,8.00
2019-05-26T22:26:46.700Z,5.28
2019-05-26T22:31:52.263Z,13.28
2019-05-26T22:36:58.149Z,10.28
2019-05-26T22:42:04.023Z,7.67
2019-05-26T22:47:09.856Z,6.37
2019-05-26T22:52:17.624Z,11.40
2019-05-26T22:57:22.658Z,11.25
2019-05-26T23:02:28.591Z,10.10
2019-05-26T23:07:34.202Z,8.55
2019-05-26T23:12:39.851Z,6.75
2019-05-26T23:17:45.554Z,7.70
2019-05-26T23:22:51.173Z,7.95
2019-05-26T23:27:56.830Z,6.65
2019-05-26T23:33:02.363Z,9.40
2019-05-26T23:38:07.950Z,12.63
2019-05-26T23:43:13.548Z,14.95
2019-05-26T23:48:19.054Z,11.43
2019-05-26T23:53:24.659Z,10.17
2019-05-26T23:58:30.342Z,7.17
